createdAt,value
2023-05-18T00:00:03.945Z,12.40
2023-05-18T00:02:31.944Z,12.40
2023-05-18T00:05:02.417Z,12.40
2023-05-18T00:07:34.073Z,12.40
2023-05-18T00:10:01.926Z,12.40
2023-05-18T00:12:29.302Z,12.40
2023-05-18T00:14:56.572Z,12.50
2023-05-18T00:17:23.799Z,12.40
2023-05-18T00:19:51.916Z,12.40
2023-05-18T00:22:19.225Z,12.50
2023-05-18T00:24:46.846Z,12.50
2023-05-18T00:27:14.997Z,12.40
2023-05-18T00:29:42.170Z,12.40
2023-05-18T00:32:09.432Z,12.40
2023-05-18T00:34:37.628Z,12.40
2023-05-18T00:37:04.764Z,12.30
2023-05-18T00:39:31.799Z,12.30
2023-05-18T00:41:58.910Z,12.30
2023-05-18T00:44:26.143Z,12.30
2023-05-18T00:46:53.272Z,12.30
2023-05-18T00:49:20.622Z,12.30
2023-05-18T00:51:48.119Z,12.30
2023-05-18T00:54:15.636Z,12.40
2023-05-18T00:56:46.301Z,12.30
2023-05-18T00:59:13.575Z,12.40
2023-05-18T01:01:46.357Z,12.30
2023-05-18T01:04:16.381Z,12.40
2023-05-18T01:06:43.882Z,12.40
2023-05-18T01:09:13.636Z,12.40
2023-05-18T01:12:21.356Z,12.40
2023-05-18T01:14:51.904Z,12.40
2023-05-18T01:17:37.736Z,12.40
2023-05-18T01:20:11.787Z,12.40
2023-05-18T01:22:42.429Z,12.40
2023-05-18T01:25:23.496Z,12.40
2023-05-18T01:27:51.998Z,12.40
2023-05-18T01:30:19.480Z,12.40
2023-05-18T01:32:47.285Z,12.40
2023-05-18T01:35:14.465Z,12.40
2023-05-18T01:37:41.523Z,12.40
2023-05-18T01:40:09.499Z,12.40
2023-05-18T01:42:43.608Z,12.40
2023-05-18T01:45:21.031Z,12.40
2023-05-18T01:47:49.556Z,12.40
2023-05-18T01:50:22.649Z,12.40
2023-05-18T01:53:06.506Z,12.40
2023-05-18T01:55:36.712Z,12.40
2023-05-18T01:58:06.960Z,12.40
2023-05-18T02:00:35.146Z,12.40
2023-05-18T02:03:02.458Z,12.40
2023-05-18T02:05:29.922Z,12.40
2023-05-18T02:07:58.202Z,12.40
2023-05-18T02:10:25.312Z,12.40
2023-05-18T02:12:53.878Z,12.40
2023-05-18T02:15:21.466Z,12.40
2023-05-18T02:17:49.771Z,12.40
2023-05-18T02:20:19.724Z,12.40
2023-05-18T02:22:46.883Z,12.40
2023-05-18T02:25:13.992Z,12.40
2023-05-18T02:27:41.224Z,12.40
2023-05-18T02:30:09.016Z,12.40
2023-05-18T02:32:39.511Z,12.40
2023-05-18T02:35:07.739Z,12.40
2023-05-18T02:37:40.112Z,12.40
2023-05-18T02:40:11.013Z,12.40
2023-05-18T02:42:38.178Z,12.40
2023-05-18T02:45:06.066Z,12.40
2023-05-18T02:47:34.153Z,12.40
2023-05-18T02:50:01.529Z,12.40
2023-05-18T02:52:29.738Z,12.40
2023-05-18T02:54:57.031Z,12.40
2023-05-18T02:57:39.902Z,12.40
2023-05-18T03:00:11.904Z,12.40
2023-05-18T03:02:40.481Z,12.40
2023-05-18T03:05:08.129Z,12.40
2023-05-18T03:07:35.231Z,12.40
2023-05-18T03:10:07.809Z,12.40
2023-05-18T03:12:34.980Z,12.40
2023-05-18T03:15:02.080Z,12.40
2023-05-18T03:17:30.509Z,12.40
2023-05-18T03:19:57.795Z,12.40
2023-05-18T03:22:24.950Z,12.40
2023-05-18T03:24:52.016Z,12.40
2023-05-18T03:27:23.330Z,12.40
2023-05-18T03:29:50.727Z,12.40
2023-05-18T03:32:18.360Z,12.30
2023-05-18T03:34:47.771Z,12.40
2023-05-18T03:37:16.093Z,12.30
2023-05-18T03:39:43.668Z,12.30
2023-05-18T03:42:10.977Z,12.30
2023-05-18T03:44:38.205Z,12.30
2023-05-18T03:47:05.781Z,12.30
2023-05-18T03:49:35.099Z,12.30
2023-05-18T03:52:04.911Z,12.30
2023-05-18T03:54:32.879Z,12.40
2023-05-18T03:57:00.185Z,12.40
2023-05-18T03:59:27.256Z,12.40
2023-05-18T04:01:54.435Z,12.40
2023-05-18T04:04:23.674Z,12.40
2023-05-18T04:06:54.032Z,12.40
2023-05-18T04:09:23.933Z,12.40
2023-05-18T04:11:51.090Z,12.40
2023-05-18T04:14:18.189Z,12.40
2023-05-18T04:16:45.536Z,12.40
2023-05-18T04:19:13.841Z,12.40
2023-05-18T04:21:43.736Z,12.40
2023-05-18T04:24:14.567Z,12.50
2023-05-18T04:26:42.726Z,12.50
2023-05-18T04:29:10.971Z,12.50
2023-05-18T04:31:42.787Z,12.50
2023-05-18T04:34:09.889Z,12.50
2023-05-18T04:36:39.828Z,12.50
2023-05-18T04:39:07.952Z,12.50
2023-05-18T04:41:35.425Z,12.50
2023-05-18T04:44:03.122Z,12.50
2023-05-18T04:46:30.548Z,12.50
2023-05-18T04:49:01.339Z,12.50
2023-05-18T04:51:34.847Z,12.50
2023-05-18T04:54:03.324Z,12.50
2023-05-18T04:56:30.397Z,12.50
2023-05-18T04:58:59.561Z,12.50
2023-05-18T05:01:29.296Z,12.50
2023-05-18T05:03:58.934Z,12.50
2023-05-18T05:06:26.924Z,12.50
2023-05-18T05:08:54.163Z,12.50
2023-05-18T05:11:21.692Z,12.50
2023-05-18T05:13:48.887Z,12.50
2023-05-18T05:16:16.232Z,12.50
2023-05-18T05:18:44.202Z,12.60
2023-05-18T05:21:13.141Z,12.50
2023-05-18T05:23:41.345Z,12.50
2023-05-18T05:26:09.425Z,12.50
2023-05-18T05:28:36.622Z,12.60
2023-05-18T05:31:03.831Z,12.60
2023-05-18T05:33:30.925Z,12.60
2023-05-18T05:35:58.029Z,12.60
2023-05-18T05:38:25.070Z,12.70
2023-05-18T05:40:52.603Z,12.70
2023-05-18T05:43:20.222Z,12.70
2023-05-18T05:45:47.897Z,12.80
2023-05-18T05:48:15.151Z,12.80
2023-05-18T05:50:42.350Z,12.90
2023-05-18T05:53:09.980Z,12.90
2023-05-18T05:55:41.416Z,12.90
2023-05-18T05:58:12.584Z,12.90
2023-05-18T06:00:41.847Z,13.00
2023-05-18T06:03:09.064Z,13.00
2023-05-18T06:05:39.874Z,13.00
2023-05-18T06:08:09.391Z,13.00
2023-05-18T06:10:36.559Z,13.00
2023-05-18T06:13:04.248Z,13.00
2023-05-18T06:15:45.911Z,13.10
2023-05-18T06:18:13.744Z,13.10
2023-05-18T06:20:41.096Z,13.10
2023-05-18T06:23:08.564Z,13.10
2023-05-18T06:25:53.488Z,13.10
2023-05-18T06:28:31.644Z,13.20
2023-05-18T06:31:34.963Z,13.20
2023-05-18T06:34:17.355Z,13.20
2023-05-18T06:36:44.598Z,13.20
2023-05-18T06:39:11.625Z,13.20
2023-05-18T06:41:39.213Z,13.20
2023-05-18T06:44:06.474Z,13.30
2023-05-18T06:46:37.472Z,13.30
2023-05-18T06:49:20.855Z,13.30
2023-05-18T06:51:48.010Z,13.40
2023-05-18T06:54:15.482Z,13.40
2023-05-18T06:56:43.495Z,13.40
2023-05-18T06:59:10.614Z,13.50
2023-05-18T07:01:38.948Z,13.50
2023-05-18T07:04:06.872Z,13.50
2023-05-18T07:06:34.064Z,13.60
2023-05-18T07:09:03.603Z,13.60
2023-05-18T07:11:30.703Z,13.70
2023-05-18T07:13:57.710Z,13.60
2023-05-18T07:16:27.814Z,13.70
2023-05-18T07:18:57.188Z,13.70
2023-05-18T07:21:24.450Z,13.80
2023-05-18T07:23:52.744Z,13.80
2023-05-18T07:26:20.165Z,13.90
2023-05-18T07:28:47.864Z,13.90
2023-05-18T07:31:16.805Z,13.90
2023-05-18T07:33:44.775Z,14.00
2023-05-18T07:36:11.859Z,14.00
2023-05-18T07:38:38.897Z,14.00
2023-05-18T07:41:06.057Z,14.00
2023-05-18T07:43:33.127Z,14.00
2023-05-18T07:46:00.168Z,14.00
2023-05-18T07:48:27.315Z,14.00
2023-05-18T07:50:54.309Z,14.10
2023-05-18T07:53:21.601Z,14.10
2023-05-18T07:55:50.068Z,14.20
2023-05-18T07:58:17.171Z,14.20
2023-05-18T08:00:44.528Z,14.20
2023-05-18T08:03:12.071Z,14.20
2023-05-18T08:05:39.184Z,14.30
2023-05-18T08:08:07.081Z,14.40
2023-05-18T08:10:34.415Z,14.40
2023-05-18T08:13:01.736Z,14.50
2023-05-18T08:15:29.080Z,14.60
2023-05-18T08:17:57.274Z,14.60
2023-05-18T08:20:25.712Z,14.70
2023-05-18T08:22:52.936Z,14.70
2023-05-18T08:25:20.112Z,14.80
2023-05-18T08:27:47.167Z,14.80
2023-05-18T08:30:14.727Z,14.80
2023-05-18T08:32:42.312Z,14.80
2023-05-18T08:35:10.191Z,14.90
2023-05-18T08:37:38.344Z,14.90
2023-05-18T08:40:08.161Z,15.00
2023-05-18T08:43:02.673Z,15.00
2023-05-18T08:45:58.895Z,15.10
2023-05-18T08:48:28.539Z,15.20
2023-05-18T08:50:58.782Z,15.30
2023-05-18T08:53:26.672Z,15.30
2023-05-18T08:55:58.130Z,15.30
2023-05-18T08:58:35.060Z,15.40
2023-05-18T09:01:02.890Z,15.40
2023-05-18T09:03:30.915Z,15.50
2023-05-18T09:06:00.591Z,15.50
2023-05-18T09:08:29.351Z,15.50
2023-05-18T09:10:58.921Z,15.50
2023-05-18T09:13:27.174Z,15.50
2023-05-18T09:15:54.511Z,15.60
2023-05-18T09:18:24.477Z,15.60
2023-05-18T09:20:52.902Z,15.60
2023-05-18T09:23:20.126Z,15.70
2023-05-18T09:25:50.060Z,15.60
2023-05-18T09:28:37.508Z,15.70
2023-05-18T09:31:07.874Z,15.70
2023-05-18T09:33:39.154Z,15.70
2023-05-18T09:36:08.216Z,15.70
2023-05-18T09:38:46.012Z,15.70
2023-05-18T09:41:16.577Z,15.80
2023-05-18T09:43:49.118Z,15.80
2023-05-18T09:46:16.417Z,15.80
2023-05-18T09:48:46.708Z,15.90
2023-05-18T09:51:17.017Z,15.90
2023-05-18T09:53:49.688Z,15.90
2023-05-18T09:56:18.059Z,15.90
2023-05-18T09:58:46.014Z,16.00
2023-05-18T10:01:13.414Z,16.00
2023-05-18T10:03:40.964Z,16.00
2023-05-18T10:06:09.645Z,16.10
2023-05-18T10:08:37.556Z,16.20
2023-05-18T10:11:05.282Z,16.20
2023-05-18T10:13:34.115Z,16.20
2023-05-18T10:16:07.716Z,16.30
2023-05-18T10:18:37.021Z,16.30
2023-05-18T10:21:07.648Z,16.30
2023-05-18T10:23:38.531Z,16.30
2023-05-18T10:26:07.991Z,16.20
2023-05-18T10:28:44.189Z,16.20
2023-05-18T10:31:11.378Z,16.20
2023-05-18T10:33:38.748Z,16.20
2023-05-18T10:36:07.644Z,16.30
2023-05-18T10:38:42.744Z,16.40
2023-05-18T10:41:12.247Z,16.40
2023-05-18T10:43:41.949Z,16.50
2023-05-18T10:46:10.098Z,16.50
2023-05-18T10:48:41.123Z,16.50
2023-05-18T10:51:08.676Z,16.50
2023-05-18T10:53:36.783Z,16.50
2023-05-18T10:56:04.153Z,16.60
2023-05-18T10:58:32.868Z,16.60
2023-05-18T11:01:01.997Z,16.70
2023-05-18T11:03:30.188Z,16.70
2023-05-18T11:06:09.085Z,16.80
2023-05-18T11:08:46.629Z,16.80
2023-05-18T11:11:15.949Z,16.80
2023-05-18T11:13:48.249Z,16.80
2023-05-18T11:16:16.598Z,16.80
2023-05-18T11:18:46.597Z,16.80
2023-05-18T11:21:32.130Z,16.80
2023-05-18T11:24:18.861Z,16.80
2023-05-18T11:26:48.337Z,16.80
2023-05-18T11:29:23.409Z,16.80
2023-05-18T11:31:55.411Z,16.90
2023-05-18T11:34:47.652Z,16.80
2023-05-18T11:37:16.888Z,16.80
2023-05-18T11:40:00.327Z,16.80
2023-05-18T11:42:34.736Z,16.80
2023-05-18T11:45:11.851Z,16.90
2023-05-18T11:47:42.814Z,16.80
2023-05-18T11:50:14.802Z,16.70
2023-05-18T11:52:53.295Z,16.70
2023-05-18T11:55:21.224Z,16.60
2023-05-18T11:57:53.033Z,16.60
2023-05-18T12:00:21.258Z,16.50
2023-05-18T12:02:49.628Z,16.40
2023-05-18T12:05:17.697Z,16.40
2023-05-18T12:07:52.062Z,16.30
2023-05-18T12:10:22.189Z,16.30
2023-05-18T12:12:52.881Z,16.30
2023-05-18T12:15:24.222Z,16.30
2023-05-18T12:17:51.944Z,16.30
2023-05-18T12:20:21.113Z,16.30
2023-05-18T12:22:52.283Z,16.30
2023-05-18T12:25:24.768Z,16.30
2023-05-18T12:27:53.192Z,16.20
2023-05-18T12:30:23.237Z,16.20
2023-05-18T12:32:56.047Z,16.20
2023-05-18T12:35:24.272Z,16.20
2023-05-18T12:37:51.562Z,16.20
2023-05-18T12:40:20.134Z,16.10
2023-05-18T12:42:59.947Z,16.10
2023-05-18T12:45:29.709Z,16.00
2023-05-18T12:47:57.432Z,16.00
2023-05-18T12:50:28.556Z,15.90
2023-05-18T12:52:59.163Z,15.90
2023-05-18T12:55:26.670Z,15.90
2023-05-18T12:58:02.220Z,15.90
2023-05-18T13:00:37.062Z,15.90
2023-05-18T13:03:16.231Z,15.80
2023-05-18T13:05:46.213Z,15.80
2023-05-18T13:08:22.167Z,15.70
2023-05-18T13:11:01.400Z,15.70
2023-05-18T13:13:33.121Z,15.60
2023-05-18T13:16:00.587Z,15.60
2023-05-18T13:18:28.362Z,15.60
2023-05-18T13:20:58.273Z,15.60
2023-05-18T13:23:29.938Z,15.70
2023-05-18T13:25:58.979Z,15.60
2023-05-18T13:28:27.446Z,15.70
2023-05-18T13:30:54.726Z,15.70
2023-05-18T13:33:21.898Z,15.70
2023-05-18T13:35:50.010Z,15.80
2023-05-18T13:38:17.251Z,15.80
2023-05-18T13:40:45.773Z,15.80
2023-05-18T13:43:13.718Z,15.80
2023-05-18T13:45:41.866Z,15.80
2023-05-18T13:48:10.674Z,15.80
2023-05-18T13:50:38.561Z,15.80
2023-05-18T13:53:06.809Z,15.90
2023-05-18T13:55:34.604Z,15.90
2023-05-18T13:58:01.947Z,15.90
2023-05-18T14:00:29.103Z,15.90
2023-05-18T14:02:56.905Z,15.80
2023-05-18T14:05:24.595Z,15.80
2023-05-18T14:07:54.801Z,15.80
2023-05-18T14:10:21.886Z,15.80
2023-05-18T14:12:49.356Z,15.80
2023-05-18T14:15:16.532Z,15.70
2023-05-18T14:17:44.088Z,15.70
2023-05-18T14:20:12.466Z,15.70
2023-05-18T14:22:39.895Z,15.70
2023-05-18T14:25:07.271Z,15.70
2023-05-18T14:27:34.422Z,15.70
2023-05-18T14:30:01.510Z,15.60
2023-05-18T14:32:28.698Z,15.50
2023-05-18T14:34:58.089Z,15.40
2023-05-18T14:37:25.708Z,15.40
2023-05-18T14:39:52.853Z,15.40
2023-05-18T14:42:20.123Z,15.30
2023-05-18T14:44:47.271Z,15.30
2023-05-18T14:47:14.544Z,15.20
2023-05-18T14:49:41.766Z,15.20
2023-05-18T14:52:08.848Z,15.20
2023-05-18T14:54:36.710Z,15.10
2023-05-18T14:57:04.057Z,15.10
2023-05-18T14:59:31.305Z,15.10
2023-05-18T15:01:58.618Z,15.10
2023-05-18T15:04:26.086Z,15.10
2023-05-18T15:06:53.277Z,15.20
2023-05-18T15:09:20.477Z,15.20
2023-05-18T15:11:47.639Z,15.30
2023-05-18T15:14:14.755Z,15.30
2023-05-18T15:16:42.756Z,15.40
2023-05-18T15:19:10.152Z,15.50
2023-05-18T15:21:37.353Z,15.60
2023-05-18T15:24:04.531Z,15.60
2023-05-18T15:26:32.044Z,15.70
2023-05-18T15:28:59.139Z,15.70
2023-05-18T15:31:26.202Z,15.80
2023-05-18T15:33:53.343Z,15.80
2023-05-18T15:36:21.726Z,15.80
2023-05-18T15:38:50.074Z,15.80
2023-05-18T15:41:19.048Z,15.90
2023-05-18T15:43:46.834Z,16.00
2023-05-18T15:46:14.039Z,16.10
2023-05-18T15:48:41.150Z,16.20
2023-05-18T15:51:08.173Z,16.30
2023-05-18T15:53:35.398Z,16.40
2023-05-18T15:56:02.666Z,16.50
2023-05-18T15:58:30.172Z,16.60
2023-05-18T16:00:57.410Z,16.60
2023-05-18T16:03:24.689Z,16.70
2023-05-18T16:05:52.550Z,16.70
2023-05-18T16:08:20.703Z,16.70
2023-05-18T16:10:47.846Z,16.80
2023-05-18T16:13:14.936Z,16.80
2023-05-18T16:15:42.106Z,16.80
2023-05-18T16:18:09.287Z,16.90
2023-05-18T16:20:36.338Z,16.90
2023-05-18T16:23:03.411Z,16.90
2023-05-18T16:25:32.746Z,17.00
2023-05-18T16:28:00.075Z,17.00
2023-05-18T16:30:27.268Z,17.10
2023-05-18T16:32:54.467Z,17.10
2023-05-18T16:35:21.506Z,17.10
2023-05-18T16:37:48.593Z,17.20
2023-05-18T16:40:15.931Z,17.20
2023-05-18T16:42:47.195Z,17.20
2023-05-18T16:45:14.932Z,17.30
2023-05-18T16:47:42.135Z,17.30
2023-05-18T16:50:09.783Z,17.30
2023-05-18T16:52:37.508Z,17.30
2023-05-18T16:55:04.950Z,17.30
2023-05-18T16:57:33.837Z,17.30
2023-05-18T17:00:07.377Z,17.30
2023-05-18T17:02:38.384Z,17.40
2023-05-18T17:05:06.911Z,17.40
2023-05-18T17:07:34.717Z,17.40
2023-05-18T17:10:02.381Z,17.40
2023-05-18T17:12:29.932Z,17.40
2023-05-18T17:14:57.070Z,17.40
2023-05-18T17:17:24.184Z,17.40
2023-05-18T17:19:51.501Z,17.40
2023-05-18T17:22:19.034Z,17.40
2023-05-18T17:24:46.194Z,17.40
2023-05-18T17:27:13.308Z,17.40
2023-05-18T17:29:40.378Z,17.40
2023-05-18T17:32:07.782Z,17.40
2023-05-18T17:34:34.931Z,17.40
2023-05-18T17:37:02.001Z,17.40
2023-05-18T17:39:29.089Z,17.40
2023-05-18T17:41:56.277Z,17.40
2023-05-18T17:44:23.479Z,17.40
2023-05-18T17:46:51.053Z,17.40
2023-05-18T17:49:18.256Z,17.40
2023-05-18T17:51:46.084Z,17.40
2023-05-18T17:54:13.200Z,17.40
2023-05-18T17:56:40.490Z,17.40
2023-05-18T17:59:07.706Z,17.40
2023-05-18T18:01:34.960Z,17.30
2023-05-18T18:04:02.253Z,17.30
2023-05-18T18:06:29.384Z,17.20
2023-05-18T18:08:58.296Z,17.30
2023-05-18T18:11:26.590Z,17.20
2023-05-18T18:13:54.394Z,17.20
2023-05-18T18:16:22.313Z,17.10
2023-05-18T18:18:50.569Z,17.10
2023-05-18T18:21:17.914Z,17.00
2023-05-18T18:23:45.320Z,17.00
2023-05-18T18:26:12.461Z,17.00
2023-05-18T18:28:39.689Z,16.90
2023-05-18T18:31:06.730Z,17.00
2023-05-18T18:33:33.969Z,16.90
2023-05-18T18:36:02.462Z,16.90
2023-05-18T18:38:29.545Z,16.90
2023-05-18T18:41:01.456Z,16.90
2023-05-18T18:43:29.008Z,16.90
2023-05-18T18:45:57.341Z,16.90
2023-05-18T18:48:25.576Z,16.80
2023-05-18T18:50:53.612Z,16.80
2023-05-18T18:53:20.686Z,16.90
2023-05-18T18:55:48.020Z,16.90
2023-05-18T18:58:15.853Z,16.80
2023-05-18T19:00:43.077Z,16.80
2023-05-18T19:03:10.525Z,16.90
2023-05-18T19:05:38.145Z,16.90
2023-05-18T19:08:05.463Z,16.90
2023-05-18T19:10:34.236Z,16.90
2023-05-18T19:13:05.746Z,16.90
2023-05-18T19:15:34.332Z,16.90
2023-05-18T19:18:01.901Z,16.90
2023-05-18T19:20:29.016Z,16.90
2023-05-18T19:22:56.022Z,16.90
2023-05-18T19:25:26.494Z,16.90
2023-05-18T19:27:54.283Z,16.90
2023-05-18T19:30:22.769Z,16.90
2023-05-18T19:32:51.607Z,16.90
2023-05-18T19:35:20.229Z,16.90
2023-05-18T19:37:48.011Z,16.80
2023-05-18T19:40:16.291Z,16.80
2023-05-18T19:42:43.574Z,16.70
2023-05-18T19:45:11.074Z,16.70
2023-05-18T19:47:38.236Z,16.60
2023-05-18T19:50:06.595Z,16.60
2023-05-18T19:52:33.834Z,16.50
2023-05-18T19:55:02.246Z,16.50
2023-05-18T19:57:29.875Z,16.50
2023-05-18T19:59:57.921Z,16.40
2023-05-18T20:02:25.602Z,16.40
2023-05-18T20:04:53.801Z,16.40
2023-05-18T20:07:22.668Z,16.30
2023-05-18T20:09:53.036Z,16.30
2023-05-18T20:12:20.479Z,16.30
2023-05-18T20:14:48.500Z,16.30
2023-05-18T20:17:16.935Z,16.20
2023-05-18T20:19:50.644Z,16.20
2023-05-18T20:22:18.329Z,16.20
2023-05-18T20:24:46.278Z,16.20
2023-05-18T20:27:14.815Z,16.10
2023-05-18T20:29:41.911Z,16.00
2023-05-18T20:32:09.100Z,16.00
2023-05-18T20:34:36.812Z,16.00
2023-05-18T20:37:04.393Z,15.90
2023-05-18T20:39:32.344Z,15.80
2023-05-18T20:41:59.626Z,15.80
2023-05-18T20:44:28.067Z,15.80
2023-05-18T20:46:55.252Z,15.70
2023-05-18T20:49:22.403Z,15.70
2023-05-18T20:51:49.720Z,15.60
2023-05-18T20:54:21.607Z,15.60
2023-05-18T20:56:49.110Z,15.60
2023-05-18T20:59:16.432Z,15.50
2023-05-18T21:01:43.573Z,15.50
2023-05-18T21:04:12.794Z,15.50
2023-05-18T21:06:41.099Z,15.40
2023-05-18T21:09:08.441Z,15.40
2023-05-18T21:11:35.954Z,15.40
2023-05-18T21:14:03.143Z,15.40
2023-05-18T21:16:30.326Z,15.40
2023-05-18T21:18:57.627Z,15.30
2023-05-18T21:21:24.971Z,15.30
2023-05-18T21:23:52.135Z,15.30
2023-05-18T21:26:19.361Z,15.20
2023-05-18T21:28:46.478Z,15.20
2023-05-18T21:31:13.596Z,15.20
2023-05-18T21:33:42.066Z,15.20
2023-05-18T21:36:10.015Z,15.10
2023-05-18T21:38:37.330Z,15.10
2023-05-18T21:41:04.478Z,15.00
2023-05-18T21:43:31.805Z,15.00
2023-05-18T21:48:26.119Z,15.10
2023-05-18T21:50:53.131Z,15.10
2023-05-18T21:53:20.464Z,15.10
2023-05-18T21:55:47.629Z,15.10
2023-05-18T21:58:14.752Z,15.10
2023-05-18T22:00:41.900Z,15.10
2023-05-18T22:03:09.065Z,15.10
2023-05-18T22:05:36.253Z,15.10
2023-05-18T22:08:03.437Z,15.10
2023-05-18T22:10:32.263Z,15.00
2023-05-18T22:12:59.708Z,15.00
2023-05-18T22:15:26.891Z,15.00
2023-05-18T22:17:56.996Z,15.00
2023-05-18T22:20:24.153Z,15.00
2023-05-18T22:22:51.260Z,15.00
2023-05-18T22:25:18.581Z,15.00
2023-05-18T22:27:46.600Z,15.00
2023-05-18T22:30:14.245Z,15.00
2023-05-18T22:32:41.405Z,15.00
2023-05-18T22:35:09.454Z,15.00
2023-05-18T22:37:36.743Z,15.10
2023-05-18T22:40:06.443Z,15.10
2023-05-18T22:42:33.945Z,15.10
2023-05-18T22:45:01.341Z,15.10
2023-05-18T22:47:29.737Z,15.10
2023-05-18T22:49:56.958Z,15.10
2023-05-18T22:52:24.037Z,15.00
2023-05-18T22:54:51.124Z,15.00
2023-05-18T22:57:18.221Z,15.00
2023-05-18T22:59:45.389Z,14.90
2023-05-18T23:02:12.562Z,14.90
2023-05-18T23:04:39.749Z,14.80
2023-05-18T23:07:08.425Z,14.80
2023-05-18T23:09:38.460Z,14.80
2023-05-18T23:12:06.337Z,14.80
2023-05-18T23:14:33.858Z,14.80
2023-05-18T23:17:01.152Z,14.70
2023-05-18T23:19:28.479Z,14.70
2023-05-18T23:21:56.607Z,14.60
2023-05-18T23:24:23.726Z,14.60
2023-05-18T23:26:50.895Z,14.60
2023-05-18T23:29:18.053Z,14.60
2023-05-18T23:31:45.235Z,14.60
2023-05-18T23:34:12.601Z,14.60
2023-05-18T23:36:42.876Z,14.60
2023-05-18T23:39:10.439Z,14.70
2023-05-18T23:41:38.134Z,14.70
2023-05-18T23:44:06.571Z,14.70
2023-05-18T23:46:34.395Z,14.70
2023-05-18T23:49:01.784Z,14.70
2023-05-18T23:51:32.159Z,14.70
2023-05-18T23:54:00.297Z,14.70
2023-05-18T23:56:27.595Z,14.70
2023-05-18T23:58:54.872Z,14.70
